Time;durP1;ratioP1;P1;durP2;ratioP2;P2;SDS_P1;SDS_P2;PMS_P1;PMS_P2;Temp;Humidity;BMP_temperature;BMP_pressure;BME280_temperature;BME280_humidity;BME280_pressure;Samples;Min_cycle;Max_cycle;Signal;HPM_P1;HPM_P2
2023/11/02 05:01:24;;;;;;;1999.90;999.90;;;;;;;;;;5680292;23;20248;-67
2023/11/02 05:04:09;;;;;;;1999.90;999.90;;;;;;;;;;4956941;29;20324;-67
2023/11/02 05:06:53;;;;;;;1999.90;999.90;;;;;;;;;;4957014;29;20698;-68
2023/11/02 05:09:38;;;;;;;1999.90;999.90;;;;;;;;;;4946538;29;20216;-68
2023/11/02 05:12:23;;;;;;;1999.90;999.90;;;;;;;;;;4932514;29;20315;-67
2023/11/02 05:15:10;;;;;;;1999.90;999.90;;;;;;;;;;4934916;29;20224;-68
2023/11/02 05:17:56;;;;;;;1999.90;999.90;;;;;;;;;;4935246;29;20234;-67
2023/11/02 05:20:41;;;;;;;1999.90;999.90;;;;;;;;;;4937598;29;20230;-68
2023/11/02 05:23:26;;;;;;;1999.90;999.90;;;;;;;;;;4937648;29;20217;-67
2023/11/02 05:26:13;;;;;;;1999.90;999.90;;;;;;;;;;4929458;29;20285;-67
2023/11/02 05:28:58;;;;;;;1999.90;999.90;;;;;;;;;;4935268;29;20237;-68
2023/11/02 05:31:43;;;;;;;1999.90;999.90;;;;;;;;;;4928076;29;20240;-68
2023/11/02 05:34:29;;;;;;;1999.90;999.90;;;;;;;;;;4918255;29;20214;-67
2023/11/02 05:37:15;;;;;;;1999.90;999.90;;;;;;;;;;4929652;29;20214;-68
2023/11/02 05:40:00;;;;;;;1999.90;999.90;;;;;;;;;;4936693;29;20221;-68
2023/11/02 05:42:44;;;;;;;1999.90;999.90;;;;;;;;;;4936448;29;20227;-67
2023/11/02 05:45:30;;;;;;;1999.90;999.90;;;;;;;;;;4936021;29;20213;-66
2023/11/02 05:48:14;;;;;;;1999.90;999.90;;;;;;;;;;4937165;29;20714;-68
2023/11/02 05:51:01;;;;;;;1999.90;999.90;;;;;;;;;;4919778;29;20431;-68
2023/11/02 05:53:46;;;;;;;1999.90;999.90;;;;;;;;;;4927696;29;20217;-65
2023/11/02 05:56:31;;;;;;;1999.90;999.90;;;;;;;;;;4928681;29;20708;-68
2023/11/02 05:59:17;;;;;;;1999.90;999.90;;;;;;;;;;4925853;29;20234;-67
2023/11/02 06:02:02;;;;;;;1999.90;999.90;;;;;;;;;;4939936;28;20258;-68
2023/11/02 06:04:47;;;;;;;1999.90;999.90;;;;;;;;;;4956961;28;20223;-67
2023/11/02 06:07:33;;;;;;;1999.90;999.90;;;;;;;;;;4950759;28;20900;-68
2023/11/02 06:10:19;;;;;;;1999.90;999.90;;;;;;;;;;4959044;28;20220;-67
2023/11/02 06:13:03;;;;;;;1999.90;999.90;;;;;;;;;;4963737;28;20793;-67
2023/11/02 06:15:48;;;;;;;1999.90;999.90;;;;;;;;;;4961836;28;20416;-67
2023/11/02 06:18:33;;;;;;;1999.90;999.90;;;;;;;;;;4943083;28;20236;-67
2023/11/02 06:21:18;;;;;;;1999.90;999.90;;;;;;;;;;4954035;28;20232;-67
2023/11/02 06:24:05;;;;;;;1999.90;999.90;;;;;;;;;;4959412;28;20281;-68
2023/11/02 06:26:50;;;;;;;1999.90;999.90;;;;;;;;;;4961161;28;20750;-66
2023/11/02 06:29:35;;;;;;;1999.90;999.90;;;;;;;;;;4953316;28;20786;-68
2023/11/02 06:32:20;;;;;;;1999.90;999.90;;;;;;;;;;4947586;28;20228;-68
2023/11/02 06:35:05;;;;;;;1999.90;999.90;;;;;;;;;;4954496;28;20229;-67
2023/11/02 06:37:56;;;;;;;1999.90;999.90;;;;;;;;;;4955245;28;20265;-68
2023/11/02 06:40:43;;;;;;;1999.90;999.90;;;;;;;;;;4955045;28;20306;-67
2023/11/02 06:43:28;;;;;;;1999.90;999.90;;;;;;;;;;4954383;28;20219;-68
2023/11/02 06:46:13;;;;;;;1999.90;999.90;;;;;;;;;;4963178;28;20704;-67
2023/11/02 06:48:58;;;;;;;1999.90;999.90;;;;;;;;;;4954753;28;20200;-67
2023/11/02 06:51:43;;;;;;;1999.90;999.90;;;;;;;;;;4953457;28;20808;-68
2023/11/02 06:54:29;;;;;;;1999.90;999.90;;;;;;;;;;4947438;28;20220;-67
2023/11/02 06:57:16;;;;;;;1999.90;999.90;;;;;;;;;;4960084;28;20261;-68
2023/11/02 07:00:00;;;;;;;1999.90;999.90;;;;;;;;;;4953045;28;20337;-67
2023/11/02 07:02:46;;;;;;;1999.90;999.90;;;;;;;;;;4963585;28;20215;-65
2023/11/02 07:05:31;;;;;;;1999.90;999.90;;;;;;;;;;4952684;28;20208;-67
2023/11/02 07:08:16;;;;;;;1999.90;999.90;;;;;;;;;;4963040;28;20205;-67
2023/11/02 07:11:00;;;;;;;1999.90;999.90;;;;;;;;;;4953938;28;20245;-67
2023/11/02 07:13:47;;;;;;;1999.90;999.90;;;;;;;;;;4946584;28;20412;-67
2023/11/02 07:16:32;;;;;;;1999.90;999.90;;;;;;;;;;4954430;28;20590;-67
2023/11/02 07:19:17;;;;;;;1999.90;999.90;;;;;;;;;;4950971;28;20232;-68
2023/11/02 07:22:02;;;;;;;1999.90;999.90;;;;;;;;;;4937887;28;20234;-66
2023/11/02 07:24:47;;;;;;;1999.90;999.90;;;;;;;;;;4956847;28;20246;-67
2023/11/02 07:27:32;;;;;;;1999.90;999.90;;;;;;;;;;4956313;28;20219;-67
2023/11/02 07:30:18;;;;;;;1999.90;999.90;;;;;;;;;;4964014;28;20216;-67
2023/11/02 07:33:03;;;;;;;1999.90;999.90;;;;;;;;;;4959327;28;20213;-68
2023/11/02 07:35:48;;;;;;;1999.90;999.90;;;;;;;;;;4964352;28;20211;-68
2023/11/02 07:38:33;;;;;;;1999.90;999.90;;;;;;;;;;4942334;28;20970;-68
2023/11/02 07:41:19;;;;;;;1999.90;999.90;;;;;;;;;;4948254;28;20749;-68
2023/11/02 07:44:04;;;;;;;1999.90;999.90;;;;;;;;;;4953389;28;20336;-68
2023/11/02 07:46:51;;;;;;;1999.90;999.90;;;;;;;;;;4949387;28;20735;-68
2023/11/02 07:49:37;;;;;;;1999.90;999.90;;;;;;;;;;4953608;28;20238;-68
2023/11/02 07:52:23;;;;;;;1999.90;999.90;;;;;;;;;;4956666;28;20249;-68
2023/11/02 07:55:09;;;;;;;1999.90;999.90;;;;;;;;;;4949197;28;20710;-67
2023/11/02 07:57:56;;;;;;;1999.90;999.90;;;;;;;;;;4959964;28;20806;-68
2023/11/02 08:00:41;;;;;;;1999.90;999.90;;;;;;;;;;4952145;28;20233;-68
2023/11/02 08:03:28;;;;;;;1999.90;999.90;;;;;;;;;;4960273;28;20337;-68
2023/11/02 08:06:12;;;;;;;1999.90;999.90;;;;;;;;;;4962315;28;20228;-67
2023/11/02 08:08:57;;;;;;;1999.90;999.90;;;;;;;;;;4961856;28;20208;-69
2023/11/02 08:11:42;;;;;;;1999.90;999.90;;;;;;;;;;4934850;29;20286;-68
2023/11/02 08:14:27;;;;;;;1999.90;999.90;;;;;;;;;;4935853;28;20209;-68
2023/11/02 08:17:17;;;;;;;1999.90;999.90;;;;;;;;;;4940423;28;20309;-67
2023/11/02 08:20:03;;;;;;;1999.90;999.90;;;;;;;;;;4949354;28;20743;-68
2023/11/02 08:22:48;;;;;;;1999.90;999.90;;;;;;;;;;4948113;28;20374;-67
2023/11/02 08:25:33;;;;;;;1999.90;999.90;;;;;;;;;;4953636;28;20229;-69
2023/11/02 08:28:18;;;;;;;1999.90;999.90;;;;;;;;;;4947112;28;20211;-68
2023/11/02 08:31:03;;;;;;;1999.90;999.90;;;;;;;;;;4953356;28;20254;-69
2023/11/02 08:33:48;;;;;;;1999.90;999.90;;;;;;;;;;4946695;28;20423;-69
2023/11/02 08:36:35;;;;;;;1999.90;999.90;;;;;;;;;;4943371;28;20788;-69
2023/11/02 08:39:21;;;;;;;1999.90;999.90;;;;;;;;;;4960416;28;20262;-68
2023/11/02 08:42:06;;;;;;;1999.90;999.90;;;;;;;;;;4961014;28;20238;-69
2023/11/02 08:44:52;;;;;;;1999.90;999.90;;;;;;;;;;4947182;28;20735;-68
2023/11/02 08:47:37;;;;;;;1999.90;999.90;;;;;;;;;;4947302;28;20722;-67
2023/11/02 08:50:22;;;;;;;1999.90;999.90;;;;;;;;;;4946765;28;20220;-68
2023/11/02 08:53:08;;;;;;;1999.90;999.90;;;;;;;;;;4951159;28;20708;-68
2023/11/02 08:55:53;;;;;;;1999.90;999.90;;;;;;;;;;4949337;28;20217;-68
2023/11/02 08:58:42;;;;;;;1999.90;999.90;;;;;;;;;;4953126;28;20734;-68
2023/11/02 09:01:28;;;;;;;1999.90;999.90;;;;;;;;;;4952896;28;20766;-67
2023/11/02 09:04:13;;;;;;;1999.90;999.90;;;;;;;;;;4953150;28;20295;-68
2023/11/02 09:06:58;;;;;;;1999.90;999.90;;;;;;;;;;4952119;28;20587;-68
2023/11/02 09:09:44;;;;;;;1999.90;999.90;;;;;;;;;;4946580;28;20764;-68
2023/11/02 09:12:29;;;;;;;1999.90;999.90;;;;;;;;;;4953487;28;20239;-68
2023/11/02 09:15:14;;;;;;;1999.90;999.90;;;;;;;;;;4953748;28;20716;-68
2023/11/02 09:17:59;;;;;;;1999.90;999.90;;;;;;;;;;4956927;28;20219;-68
2023/11/02 09:20:44;;;;;;;1999.90;999.90;;;;;;;;;;4958280;28;20234;-67
2023/11/02 09:23:29;;;;;;;1999.90;999.90;;;;;;;;;;4944571;28;20701;-68
2023/11/02 09:26:15;;;;;;;1999.90;999.90;;;;;;;;;;4948609;28;20218;-67
2023/11/02 09:29:00;;;;;;;1999.90;999.90;;;;;;;;;;4944591;28;20252;-68
2023/11/02 09:31:45;;;;;;;1999.90;999.90;;;;;;;;;;4949691;28;20736;-67
2023/11/02 09:34:33;;;;;;;1999.90;999.90;;;;;;;;;;4956360;28;20600;-67
2023/11/02 09:37:18;;;;;;;1999.90;999.90;;;;;;;;;;4956369;28;20283;-68
2023/11/02 09:40:06;;;;;;;1999.90;999.90;;;;;;;;;;4962873;28;20246;-68
2023/11/02 09:42:52;;;;;;;1999.90;999.90;;;;;;;;;;4940276;28;20277;-67
2023/11/02 09:45:38;;;;;;;1999.90;999.90;;;;;;;;;;4948526;28;20235;-68
2023/11/02 09:48:24;;;;;;;1999.90;999.90;;;;;;;;;;4955827;28;20775;-68
2023/11/02 09:51:09;;;;;;;1999.90;999.90;;;;;;;;;;4955628;28;20235;-67
2023/11/02 09:53:54;;;;;;;1999.90;999.90;;;;;;;;;;4955947;28;20549;-68
2023/11/02 09:56:40;;;;;;;1999.90;999.90;;;;;;;;;;4955877;28;20215;-68
2023/11/02 09:59:26;;;;;;;1999.90;999.90;;;;;;;;;;4954836;28;20239;-68
2023/11/02 10:02:12;;;;;;;1999.90;999.90;;;;;;;;;;4955420;28;20666;-67
2023/11/02 10:04:57;;;;;;;1999.90;999.90;;;;;;;;;;4955901;28;20219;-68
2023/11/02 10:07:42;;;;;;;1999.90;999.90;;;;;;;;;;4956031;28;20712;-68
2023/11/02 10:10:29;;;;;;;1999.90;999.90;;;;;;;;;;4955631;28;20211;-68
2023/11/02 10:13:14;;;;;;;1999.90;999.90;;;;;;;;;;4955953;28;20271;-68
2023/11/02 10:16:01;;;;;;;1999.90;999.90;;;;;;;;;;4949822;28;20277;-69
2023/11/02 10:18:45;;;;;;;1999.90;999.90;;;;;;;;;;4948420;28;20280;-67
2023/11/02 10:21:31;;;;;;;1999.90;999.90;;;;;;;;;;4955184;28;20420;-68
2023/11/02 10:24:16;;;;;;;1999.90;999.90;;;;;;;;;;4955640;28;20579;-67
2023/11/02 10:27:02;;;;;;;1999.90;999.90;;;;;;;;;;4954538;28;20713;-66
2023/11/02 10:29:47;;;;;;;1999.90;999.90;;;;;;;;;;4948103;28;20201;-68
2023/11/02 10:32:35;;;;;;;1999.90;999.90;;;;;;;;;;4952754;28;20314;-68
2023/11/02 10:35:20;;;;;;;1999.90;999.90;;;;;;;;;;4956793;28;20215;-68
2023/11/02 10:38:07;;;;;;;1999.90;999.90;;;;;;;;;;4954451;28;20736;-68
2023/11/02 10:40:53;;;;;;;1999.90;999.90;;;;;;;;;;4955177;28;20240;-68
2023/11/02 10:43:38;;;;;;;1999.90;999.90;;;;;;;;;;4948876;28;20287;-69
2023/11/02 10:46:23;;;;;;;1999.90;999.90;;;;;;;;;;4954762;28;20588;-69
2023/11/02 10:49:11;;;;;;;1999.90;999.90;;;;;;;;;;4952507;28;20757;-69
2023/11/02 10:51:57;;;;;;;1999.90;999.90;;;;;;;;;;4948974;28;20240;-69
2023/11/02 10:54:47;;;;;;;1999.90;999.90;;;;;;;;;;4955011;28;20610;-68
2023/11/02 10:57:34;;;;;;;1999.90;999.90;;;;;;;;;;4954959;28;20914;-69
2023/11/02 11:00:20;;;;;;;1999.90;999.90;;;;;;;;;;4953335;28;20255;-69
2023/11/02 11:03:07;;;;;;;1999.90;999.90;;;;;;;;;;4954839;28;20696;-69
2023/11/02 11:05:55;;;;;;;1999.90;999.90;;;;;;;;;;4954795;28;20236;-68
2023/11/02 11:08:40;;;;;;;1999.90;999.90;;;;;;;;;;4954353;28;20225;-69
2023/11/02 11:11:27;;;;;;;1999.90;999.90;;;;;;;;;;4954262;28;20228;-69
2023/11/02 11:14:13;;;;;;;1999.90;999.90;;;;;;;;;;4954719;28;20220;-67
2023/11/02 11:16:58;;;;;;;1999.90;999.90;;;;;;;;;;4954621;28;20729;-68
2023/11/02 11:19:43;;;;;;;1999.90;999.90;;;;;;;;;;4954057;28;20225;-68
2023/11/02 11:22:33;;;;;;;1999.90;999.90;;;;;;;;;;4954479;28;20385;-68
2023/11/02 11:25:18;;;;;;;1999.90;999.90;;;;;;;;;;4960026;28;20220;-67
2023/11/02 11:28:27;;;;;;;1999.90;999.90;;;;;;;;;;4953996;28;20220;-67
2023/11/02 11:31:27;;;;;;;1999.90;999.90;;;;;;;;;;4954040;28;20235;-68
2023/11/02 11:34:12;;;;;;;1999.90;999.90;;;;;;;;;;4954268;28;20644;-68
2023/11/02 11:37:12;;;;;;;1999.90;999.90;;;;;;;;;;4948609;28;20701;-68
2023/11/02 11:40:07;;;;;;;1999.90;999.90;;;;;;;;;;4953725;28;20294;-67
2023/11/02 11:42:56;;;;;;;1999.90;999.90;;;;;;;;;;4946980;28;20292;-69
2023/11/02 11:45:49;;;;;;;1999.90;999.90;;;;;;;;;;4953967;28;20212;-70
2023/11/02 11:48:35;;;;;;;1999.90;999.90;;;;;;;;;;4961995;28;20208;-69
2023/11/02 11:51:38;;;;;;;1999.90;999.90;;;;;;;;;;4951054;28;20450;-70
2023/11/02 11:54:26;;;;;;;1999.90;999.90;;;;;;;;;;4946385;28;20264;-69
2023/11/02 11:57:32;;;;;;;1999.90;999.90;;;;;;;;;;4956531;28;20344;-70
2023/11/02 12:00:17;;;;;;;1999.90;999.90;;;;;;;;;;4946602;28;20232;-69
2023/11/02 12:03:05;;;;;;;1999.90;999.90;;;;;;;;;;4950237;28;20220;-70
2023/11/02 12:05:54;;;;;;;1999.90;999.90;;;;;;;;;;4945255;28;20224;-69
2023/11/02 12:08:46;;;;;;;1999.90;999.90;;;;;;;;;;4947071;28;20216;-69
2023/11/02 12:11:31;;;;;;;1999.90;999.90;;;;;;;;;;4962315;28;20229;-70
2023/11/02 12:14:19;;;;;;;1999.90;999.90;;;;;;;;;;4948333;28;20217;-69
2023/11/02 12:17:04;;;;;;;1999.90;999.90;;;;;;;;;;4943444;28;20256;-70
2023/11/02 12:19:49;;;;;;;1999.90;999.90;;;;;;;;;;4959086;28;20704;-70
2023/11/02 12:22:48;;;;;;;1999.90;999.90;;;;;;;;;;4946235;28;20582;-69
2023/11/02 12:25:33;;;;;;;1999.90;999.90;;;;;;;;;;4946744;28;20216;-69
2023/11/02 12:28:18;;;;;;;1999.90;999.90;;;;;;;;;;4951843;28;20929;-69
2023/11/02 12:31:04;;;;;;;1999.90;999.90;;;;;;;;;;4953244;28;20359;-70
2023/11/02 12:33:49;;;;;;;1999.90;999.90;;;;;;;;;;4953029;28;20235;-69
2023/11/02 12:36:34;;;;;;;1999.90;999.90;;;;;;;;;;4960386;28;20719;-70
2023/11/02 12:39:20;;;;;;;1999.90;999.90;;;;;;;;;;4954237;28;20845;-70
2023/11/02 12:42:08;;;;;;;1999.90;999.90;;;;;;;;;;4954985;28;20235;-70
2023/11/02 12:44:59;;;;;;;1999.90;999.90;;;;;;;;;;4949776;28;20216;-69
2023/11/02 12:47:44;;;;;;;1999.90;999.90;;;;;;;;;;4952702;28;20929;-69
2023/11/02 12:50:31;;;;;;;1999.90;999.90;;;;;;;;;;4945351;28;20744;-69
2023/11/02 12:53:25;;;;;;;1999.90;999.90;;;;;;;;;;4957313;28;20220;-70
2023/11/02 12:56:11;;;;;;;1999.90;999.90;;;;;;;;;;4957272;28;20338;-69
2023/11/02 12:59:00;;;;;;;1999.90;999.90;;;;;;;;;;4957189;28;20208;-69
2023/11/02 13:01:47;;;;;;;1999.90;999.90;;;;;;;;;;4958221;28;20241;-70
2023/11/02 13:17:49;;;;;;;1999.90;999.90;;;;;;;;;;5089566;27;20628;-68
2023/11/02 13:20:34;;;;;;;1999.90;999.90;;;;;;;;;;5088752;28;20281;-68
2023/11/02 13:23:19;;;;;;;1999.90;999.90;;;;;;;;;;5077055;28;20220;-67
2023/11/02 13:26:06;;;;;;;1999.90;999.90;;;;;;;;;;5061156;28;20228;-68
2023/11/02 13:28:52;;;;;;;1999.90;999.90;;;;;;;;;;5068416;28;20212;-68
2023/11/02 13:31:37;;;;;;;1999.90;999.90;;;;;;;;;;5068480;28;20728;-69
2023/11/02 13:34:24;;;;;;;1999.90;999.90;;;;;;;;;;5068610;28;20286;-69
2023/11/02 13:37:08;;;;;;;1999.90;999.90;;;;;;;;;;5068461;28;20232;-70
2023/11/02 13:39:53;;;;;;;1999.90;999.90;;;;;;;;;;5069104;28;20209;-70
2023/11/02 13:42:38;;;;;;;1999.90;999.90;;;;;;;;;;5073173;28;20361;-70
2023/11/02 13:45:23;;;;;;;1999.90;999.90;;;;;;;;;;5068221;28;20255;-70
2023/11/02 13:48:09;;;;;;;1999.90;999.90;;;;;;;;;;5064199;28;20212;-70
2023/11/02 13:50:55;;;;;;;1999.90;999.90;;;;;;;;;;5074680;28;20235;-69
2023/11/02 13:53:40;;;;;;;1999.90;999.90;;;;;;;;;;5086573;28;20634;-68
2023/11/02 13:56:25;;;;;;;1999.90;999.90;;;;;;;;;;5087473;28;20765;-68
2023/11/02 13:59:11;;;;;;;1999.90;999.90;;;;;;;;;;5088142;28;20252;-67
2023/11/02 14:01:56;;;;;;;1999.90;999.90;;;;;;;;;;5088109;28;20246;-67
2023/11/02 14:04:41;;;;;;;1999.90;999.90;;;;;;;;;;5088147;28;20215;-67
2023/11/02 14:07:29;;;;;;;1999.90;999.90;;;;;;;;;;5087200;28;20453;-70
2023/11/02 14:10:15;;;;;;;1999.90;999.90;;;;;;;;;;5074659;28;20337;-70
2023/11/02 14:13:00;;;;;;;1999.90;999.90;;;;;;;;;;5067732;28;20230;-70
2023/11/02 14:15:46;;;;;;;1999.90;999.90;;;;;;;;;;5070773;28;20218;-70
2023/11/02 14:18:31;;;;;;;1999.90;999.90;;;;;;;;;;5059539;28;20784;-69
2023/11/02 14:21:16;;;;;;;1999.90;999.90;;;;;;;;;;5052774;28;20295;-69
2023/11/02 14:24:05;;;;;;;1999.90;999.90;;;;;;;;;;5061596;28;20215;-70
2023/11/02 14:26:50;;;;;;;1999.90;999.90;;;;;;;;;;5072051;28;20281;-70
2023/11/02 14:29:35;;;;;;;1999.90;999.90;;;;;;;;;;5054725;28;20226;-69
2023/11/02 14:32:21;;;;;;;1999.90;999.90;;;;;;;;;;5065428;28;20404;-70
2023/11/02 14:35:06;;;;;;;1999.90;999.90;;;;;;;;;;5058325;28;20325;-69
2023/11/02 14:37:52;;;;;;;1999.90;999.90;;;;;;;;;;5056132;28;20569;-70
2023/11/02 14:40:38;;;;;;;1999.90;999.90;;;;;;;;;;5053385;28;20223;-70
2023/11/02 14:43:23;;;;;;;1999.90;999.90;;;;;;;;;;5068220;28;20219;-71
2023/11/02 14:46:09;;;;;;;1999.90;999.90;;;;;;;;;;5068263;28;20213;-70
2023/11/02 14:48:54;;;;;;;1999.90;999.90;;;;;;;;;;5073066;28;20288;-70
2023/11/02 14:51:38;;;;;;;1999.90;999.90;;;;;;;;;;5073851;28;20737;-70
2023/11/02 14:54:24;;;;;;;1999.90;999.90;;;;;;;;;;5073741;28;20580;-70
2023/11/02 14:57:10;;;;;;;1999.90;999.90;;;;;;;;;;5069532;28;20230;-70
2023/11/02 14:59:55;;;;;;;1999.90;999.90;;;;;;;;;;5073234;28;20215;-70
2023/11/02 15:02:40;;;;;;;1999.90;999.90;;;;;;;;;;5073461;28;20749;-70
2023/11/02 15:05:25;;;;;;;1999.90;999.90;;;;;;;;;;5062540;28;20220;-70
2023/11/02 15:08:10;;;;;;;1999.90;999.90;;;;;;;;;;5062937;28;20214;-69
2023/11/02 15:10:55;;;;;;;1999.90;999.90;;;;;;;;;;5069501;28;20731;-69
2023/11/02 15:13:41;;;;;;;1999.90;999.90;;;;;;;;;;5071478;28;20219;-70
2023/11/02 15:16:26;;;;;;;1999.90;999.90;;;;;;;;;;5073277;28;20219;-70
2023/11/02 15:19:11;;;;;;;1999.90;999.90;;;;;;;;;;5057856;28;20209;-69
2023/11/02 15:21:59;;;;;;;1999.90;999.90;;;;;;;;;;5063261;28;20351;-70
2023/11/02 15:24:44;;;;;;;1999.90;999.90;;;;;;;;;;5070821;28;20219;-70
2023/11/02 15:27:29;;;;;;;1999.90;999.90;;;;;;;;;;5059107;28;20606;-70
2023/11/02 15:30:17;;;;;;;1999.90;999.90;;;;;;;;;;5046947;28;20784;-69
2023/11/02 15:33:02;;;;;;;1999.90;999.90;;;;;;;;;;5073119;28;20326;-70
2023/11/02 15:35:48;;;;;;;1999.90;999.90;;;;;;;;;;5072679;28;20688;-69
2023/11/02 15:38:33;;;;;;;1999.90;999.90;;;;;;;;;;5069729;28;20290;-69
2023/11/02 15:41:22;;;;;;;1999.90;999.90;;;;;;;;;;5065404;28;20281;-70
2023/11/02 15:44:07;;;;;;;1999.90;999.90;;;;;;;;;;5067715;28;20254;-69
2023/11/02 15:46:53;;;;;;;1999.90;999.90;;;;;;;;;;5054288;28;20765;-69
2023/11/02 15:49:39;;;;;;;1999.90;999.90;;;;;;;;;;5063472;28;20222;-69
2023/11/02 15:52:24;;;;;;;1999.90;999.90;;;;;;;;;;5068124;28;20395;-69
2023/11/02 15:55:09;;;;;;;1999.90;999.90;;;;;;;;;;5062029;28;20220;-69
2023/11/02 15:57:55;;;;;;;1999.90;999.90;;;;;;;;;;5067858;28;20208;-68
2023/11/02 16:00:41;;;;;;;1999.90;999.90;;;;;;;;;;5072257;28;20256;-69
2023/11/02 16:03:28;;;;;;;1999.90;999.90;;;;;;;;;;5072466;28;20233;-67
2023/11/02 16:06:13;;;;;;;1999.90;999.90;;;;;;;;;;5055916;28;20719;-67
2023/11/02 16:08:58;;;;;;;1999.90;999.90;;;;;;;;;;5072240;28;20300;-70
2023/11/02 16:11:44;;;;;;;1999.90;999.90;;;;;;;;;;5072224;28;20237;-69
2023/11/02 16:14:29;;;;;;;1999.90;999.90;;;;;;;;;;5067660;28;20281;-68
2023/11/02 16:17:14;;;;;;;1999.90;999.90;;;;;;;;;;5072106;28;20240;-70
2023/11/02 16:20:01;;;;;;;1999.90;999.90;;;;;;;;;;5067254;28;20332;-70
2023/11/02 16:22:46;;;;;;;1999.90;999.90;;;;;;;;;;5055044;28;20892;-70
2023/11/02 16:25:31;;;;;;;1999.90;999.90;;;;;;;;;;5044822;28;20341;-69
2023/11/02 16:28:16;;;;;;;1999.90;999.90;;;;;;;;;;5044985;28;20710;-69
2023/11/02 16:31:01;;;;;;;1999.90;999.90;;;;;;;;;;5052518;28;20245;-69
2023/11/02 16:33:46;;;;;;;1999.90;999.90;;;;;;;;;;5052045;28;20217;-70
2023/11/02 16:36:40;;;;;;;1999.90;999.90;;;;;;;;;;5050540;28;20230;-69
2023/11/02 16:39:25;;;;;;;1999.90;999.90;;;;;;;;;;5036322;28;20201;-69
2023/11/02 16:42:11;;;;;;;1999.90;999.90;;;;;;;;;;5053858;28;20234;-70
2023/11/02 16:44:56;;;;;;;1999.90;999.90;;;;;;;;;;5051309;28;20216;-70
2023/11/02 16:47:41;;;;;;;1999.90;999.90;;;;;;;;;;5069984;28;20308;-69
2023/11/02 16:50:26;;;;;;;1999.90;999.90;;;;;;;;;;5070069;28;20772;-69
2023/11/02 16:53:13;;;;;;;1999.90;999.90;;;;;;;;;;5071438;28;20221;-70
2023/11/02 16:55:58;;;;;;;1999.90;999.90;;;;;;;;;;5056397;28;20288;-69
2023/11/02 16:58:43;;;;;;;1999.90;999.90;;;;;;;;;;5054772;28;20688;-69
2023/11/02 17:01:28;;;;;;;1999.90;999.90;;;;;;;;;;5050956;28;20230;-69
2023/11/02 17:04:14;;;;;;;1999.90;999.90;;;;;;;;;;5062380;28;20225;-69
2023/11/02 17:06:59;;;;;;;1999.90;999.90;;;;;;;;;;5049493;28;20221;-69
2023/11/02 17:09:45;;;;;;;1999.90;999.90;;;;;;;;;;5049264;28;20591;-70
2023/11/02 17:12:30;;;;;;;1999.90;999.90;;;;;;;;;;5049242;28;20218;-71
2023/11/02 17:15:15;;;;;;;1999.90;999.90;;;;;;;;;;5050410;28;20233;-69
2023/11/02 17:18:00;;;;;;;1999.90;999.90;;;;;;;;;;5049553;28;20211;-70
2023/11/02 17:20:45;;;;;;;1999.90;999.90;;;;;;;;;;5051806;28;20263;-70
2023/11/02 17:23:30;;;;;;;1999.90;999.90;;;;;;;;;;5048934;28;20209;-71
2023/11/02 17:26:17;;;;;;;1999.90;999.90;;;;;;;;;;5051745;28;20260;-69
2023/11/02 17:29:02;;;;;;;1999.90;999.90;;;;;;;;;;5053341;28;20705;-70
2023/11/02 17:31:47;;;;;;;1999.90;999.90;;;;;;;;;;5049356;28;20307;-70
2023/11/02 17:34:32;;;;;;;1999.90;999.90;;;;;;;;;;5049111;28;20226;-69
2023/11/02 17:37:17;;;;;;;1999.90;999.90;;;;;;;;;;5054892;28;20219;-69
2023/11/02 17:40:02;;;;;;;1999.90;999.90;;;;;;;;;;5050138;28;20217;-69
2023/11/02 17:42:48;;;;;;;1999.90;999.90;;;;;;;;;;5055642;28;20209;-69
2023/11/02 17:45:33;;;;;;;1999.90;999.90;;;;;;;;;;5057763;28;20205;-68
2023/11/02 17:48:18;;;;;;;1999.90;999.90;;;;;;;;;;5046007;28;20224;-69
2023/11/02 17:51:05;;;;;;;1999.90;999.90;;;;;;;;;;5050637;28;20315;-68
2023/11/02 17:53:50;;;;;;;1999.90;999.90;;;;;;;;;;5054247;28;20206;-69
2023/11/02 17:56:40;;;;;;;1999.90;999.90;;;;;;;;;;5057771;28;20208;-69
2023/11/02 17:59:26;;;;;;;1999.90;999.90;;;;;;;;;;5046661;28;20209;-69
2023/11/02 18:02:11;;;;;;;1999.90;999.90;;;;;;;;;;5054935;28;20229;-69
2023/11/02 18:04:56;;;;;;;1999.90;999.90;;;;;;;;;;5054640;28;20203;-69
2023/11/02 18:07:41;;;;;;;1999.90;999.90;;;;;;;;;;5048559;28;20753;-69
2023/11/02 18:10:28;;;;;;;1999.90;999.90;;;;;;;;;;5041159;28;20453;-69
2023/11/02 18:13:13;;;;;;;1999.90;999.90;;;;;;;;;;5057301;28;20243;-69
2023/11/02 18:15:59;;;;;;;1999.90;999.90;;;;;;;;;;5054488;28;20273;-69
2023/11/02 18:18:44;;;;;;;1999.90;999.90;;;;;;;;;;5054675;28;20546;-68
2023/11/02 18:21:31;;;;;;;1999.90;999.90;;;;;;;;;;5053323;28;20231;-68
2023/11/02 18:24:17;;;;;;;1999.90;999.90;;;;;;;;;;5059422;28;20218;-68
2023/11/02 18:27:02;;;;;;;1999.90;999.90;;;;;;;;;;5058846;28;20231;-68
2023/11/02 18:29:47;;;;;;;1999.90;999.90;;;;;;;;;;5048519;28;20846;-69
2023/11/02 18:32:34;;;;;;;1999.90;999.90;;;;;;;;;;5058617;28;20271;-70
2023/11/02 18:35:22;;;;;;;1999.90;999.90;;;;;;;;;;5069234;28;21163;-69
2023/11/02 18:38:11;;;;;;;1999.90;999.90;;;;;;;;;;5073316;28;20252;-68
2023/11/02 18:40:56;;;;;;;1999.90;999.90;;;;;;;;;;5064594;28;20632;-68
2023/11/02 18:43:41;;;;;;;1999.90;999.90;;;;;;;;;;5067402;28;20397;-69
2023/11/02 18:46:27;;;;;;;1999.90;999.90;;;;;;;;;;5053815;28;20577;-67
2023/11/02 18:49:14;;;;;;;1999.90;999.90;;;;;;;;;;5050139;28;20592;-68
2023/11/02 18:52:00;;;;;;;1999.90;999.90;;;;;;;;;;5048317;28;20224;-68
2023/11/02 18:54:46;;;;;;;1999.90;999.90;;;;;;;;;;5050767;28;20209;-69
2023/11/02 18:57:31;;;;;;;1999.90;999.90;;;;;;;;;;5051251;28;20226;-68
2023/11/02 19:00:16;;;;;;;1999.90;999.90;;;;;;;;;;5050901;28;20211;-70
2023/11/02 19:03:01;;;;;;;1999.90;999.90;;;;;;;;;;5051073;28;20589;-69
2023/11/02 19:05:48;;;;;;;1999.90;999.90;;;;;;;;;;5051525;28;20198;-69
2023/11/02 19:08:33;;;;;;;1999.90;999.90;;;;;;;;;;5050685;28;20316;-68
2023/11/02 19:11:18;;;;;;;1999.90;999.90;;;;;;;;;;5050677;28;20280;-69
2023/11/02 19:14:03;;;;;;;1999.90;999.90;;;;;;;;;;5051540;28;20713;-69
2023/11/02 19:16:48;;;;;;;1999.90;999.90;;;;;;;;;;5050600;28;20211;-69
2023/11/02 19:19:33;;;;;;;1999.90;999.90;;;;;;;;;;5051003;28;20277;-70
2023/11/02 19:22:21;;;;;;;1999.90;999.90;;;;;;;;;;5052245;28;20287;-69
2023/11/02 19:25:07;;;;;;;1999.90;999.90;;;;;;;;;;5053296;28;20207;-69
2023/11/02 19:27:52;;;;;;;1999.90;999.90;;;;;;;;;;5052219;28;20231;-68
2023/11/02 19:30:37;;;;;;;1999.90;999.90;;;;;;;;;;5046822;28;20992;-69
2023/11/02 19:33:22;;;;;;;1999.90;999.90;;;;;;;;;;5053304;28;20231;-69
2023/11/02 19:36:07;;;;;;;1999.90;999.90;;;;;;;;;;5060413;28;20211;-68
2023/11/02 19:38:54;;;;;;;1999.90;999.90;;;;;;;;;;5049539;28;20212;-69
2023/11/02 19:41:39;;;;;;;1999.90;999.90;;;;;;;;;;5032909;28;20261;-69
2023/11/02 19:44:24;;;;;;;1999.90;999.90;;;;;;;;;;5044992;28;20703;-69
2023/11/02 19:47:09;;;;;;;1999.90;999.90;;;;;;;;;;5072124;28;20249;-70
2023/11/02 19:49:54;;;;;;;1999.90;999.90;;;;;;;;;;5066806;28;20216;-70
2023/11/02 19:52:39;;;;;;;1999.90;999.90;;;;;;;;;;5048078;28;20309;-70
2023/11/02 19:55:26;;;;;;;1999.90;999.90;;;;;;;;;;5050303;28;20542;-69
2023/11/02 19:58:10;;;;;;;1999.90;999.90;;;;;;;;;;5052844;28;20199;-69
2023/11/02 20:00:55;;;;;;;1999.90;999.90;;;;;;;;;;5052951;28;20720;-69
2023/11/02 20:03:41;;;;;;;1999.90;999.90;;;;;;;;;;5057740;28;20237;-69
2023/11/02 20:06:26;;;;;;;1999.90;999.90;;;;;;;;;;5052590;28;20223;-69
2023/11/02 20:09:13;;;;;;;1999.90;999.90;;;;;;;;;;5052247;28;20288;-69
2023/11/02 20:11:59;;;;;;;1999.90;999.90;;;;;;;;;;5062555;28;20225;-69
2023/11/02 20:14:45;;;;;;;1999.90;999.90;;;;;;;;;;5054533;28;20255;-70
2023/11/02 20:17:30;;;;;;;1999.90;999.90;;;;;;;;;;5060854;28;20251;-68
2023/11/02 20:20:15;;;;;;;1999.90;999.90;;;;;;;;;;5068462;28;20212;-68
2023/11/02 20:23:00;;;;;;;1999.90;999.90;;;;;;;;;;5066937;28;20226;-69
2023/11/02 20:25:45;;;;;;;1999.90;999.90;;;;;;;;;;5058430;28;20305;-68
2023/11/02 20:28:32;;;;;;;1999.90;999.90;;;;;;;;;;5052373;28;20312;-66
2023/11/02 20:31:17;;;;;;;1999.90;999.90;;;;;;;;;;5051552;28;20250;-70
2023/11/02 20:34:01;;;;;;;1999.90;999.90;;;;;;;;;;5058620;28;20211;-69
2023/11/02 20:36:47;;;;;;;1999.90;999.90;;;;;;;;;;5071871;28;20217;-69
2023/11/02 20:39:33;;;;;;;1999.90;999.90;;;;;;;;;;5062832;28;20884;-69